Time;durP1;ratioP1;P1;durP2;ratioP2;P2;SDS_P1;SDS_P2;PMS_P1;PMS_P2;Temp;Humidity;BMP_temperature;BMP_pressure;BME280_temperature;BME280_humidity;BME280_pressure;Samples;Min_cycle;Max_cycle;Signal;HPM_P1;HPM_P2
2022/06/15 00:02:07;;;;;;;5.27;2.73;;;13.90;99.90;;;;;;5033732;28;20210;-63
2022/06/15 00:04:35;;;;;;;9.13;3.40;;;13.80;99.90;;;;;;5033193;28;20714;-63
2022/06/15 00:07:01;;;;;;;6.30;3.20;;;13.80;99.90;;;;;;5033571;28;20640;-63
2022/06/15 00:09:28;;;;;;;5.30;2.97;;;13.70;99.90;;;;;;5033079;28;20218;-63
2022/06/15 00:11:55;;;;;;;7.90;2.67;;;13.70;99.90;;;;;;5033652;28;20209;-63
2022/06/15 00:14:26;;;;;;;4.80;3.17;;;13.70;99.90;;;;;;5033743;28;20216;-64
2022/06/15 00:16:53;;;;;;;5.70;2.80;;;13.70;99.90;;;;;;5032985;28;20734;-64
2022/06/15 00:19:20;;;;;;;6.93;2.73;;;13.70;99.90;;;;;;5033103;28;20629;-64
2022/06/15 00:21:48;;;;;;;5.87;3.23;;;13.60;99.90;;;;;;5033195;28;20684;-64
2022/06/15 00:24:15;;;;;;;5.37;2.63;;;13.60;99.90;;;;;;5033243;28;20219;-64
2022/06/15 00:26:42;;;;;;;6.93;2.77;;;13.60;99.90;;;;;;5034016;28;20868;-63
2022/06/15 00:29:09;;;;;;;5.00;2.90;;;13.60;99.90;;;;;;5037807;28;20217;-64
2022/06/15 00:31:36;;;;;;;5.83;2.90;;;13.60;99.90;;;;;;5041029;28;20209;-63
2022/06/15 00:34:03;;;;;;;6.03;2.90;;;13.60;99.90;;;;;;5039435;28;20252;-64
2022/06/15 00:36:30;;;;;;;5.97;3.00;;;13.60;99.90;;;;;;5036039;28;20278;-64
2022/06/15 00:38:59;;;;;;;8.63;3.10;;;13.60;99.90;;;;;;5032944;28;20242;-64
2022/06/15 00:41:28;;;;;;;6.97;3.20;;;13.50;99.90;;;;;;5033384;28;20209;-64
2022/06/15 00:43:58;;;;;;;7.47;2.97;;;13.60;99.90;;;;;;5035170;28;20218;-64
2022/06/15 00:46:27;;;;;;;7.53;2.73;;;13.50;99.90;;;;;;5031549;28;20229;-64
2022/06/15 00:48:59;;;;;;;6.30;3.00;;;13.50;99.90;;;;;;5032715;28;20243;-64
2022/06/15 00:51:26;;;;;;;5.30;3.33;;;13.50;99.90;;;;;;5032130;28;20221;-64
2022/06/15 00:53:54;;;;;;;7.70;3.20;;;13.50;99.90;;;;;;5032653;28;20209;-64
2022/06/15 00:56:23;;;;;;;10.80;3.33;;;13.40;99.90;;;;;;5032065;28;20776;-64
2022/06/15 00:58:53;;;;;;;5.00;3.00;;;13.40;99.90;;;;;;5032442;28;20390;-64
2022/06/15 01:01:20;;;;;;;5.17;3.00;;;13.40;1.00;;;;;;5032658;28;20296;-64
2022/06/15 01:03:49;;;;;;;7.87;3.43;;;13.30;1.00;;;;;;5032258;28;20221;-64
2022/06/15 01:06:26;;;;;;;5.63;3.70;;;13.30;1.00;;;;;;5031691;28;20660;-64
2022/06/15 01:09:00;;;;;;;11.90;3.67;;;13.20;1.00;;;;;;5032009;28;20230;-64
2022/06/15 01:11:44;;;;;;;8.17;3.63;;;13.20;1.00;;;;;;5032330;28;20204;-64
2022/06/15 01:14:43;;;;;;;9.30;3.60;;;13.10;1.00;;;;;;5032121;28;20720;-64
2022/06/15 01:17:31;;;;;;;8.60;3.57;;;13.10;1.00;;;;;;5021796;28;20613;-64
2022/06/15 01:20:16;;;;;;;4.23;3.50;;;13.10;24.60;;;;;;5032071;28;20218;-64
2022/06/15 01:23:15;;;;;;;4.40;3.47;;;13.00;99.90;;;;;;5031986;28;20203;-64
2022/06/15 01:25:46;;;;;;;7.40;3.37;;;12.90;99.90;;;;;;5031518;28;20324;-64
2022/06/15 01:28:39;;;;;;;4.90;3.83;;;12.90;99.90;;;;;;5031919;28;20216;-63
2022/06/15 01:31:15;;;;;;;6.30;3.80;;;12.90;99.90;;;;;;5031965;28;20208;-64
2022/06/15 01:33:53;;;;;;;11.63;4.17;;;12.80;99.90;;;;;;5032171;28;20213;-63
2022/06/15 01:36:26;;;;;;;4.07;3.67;;;12.80;1.00;;;;;;5031704;28;20227;-63
2022/06/15 01:39:00;;;;;;;7.57;4.23;;;12.80;1.00;;;;;;5032218;28;20206;-64
2022/06/15 01:41:32;;;;;;;6.23;3.80;;;12.80;1.00;;;;;;5031820;28;20739;-63
2022/06/15 01:44:05;;;;;;;5.53;4.10;;;12.80;1.00;;;;;;5032201;28;20210;-63
2022/06/15 01:46:36;;;;;;;7.90;3.93;;;12.80;9.70;;;;;;5031928;28;20229;-64
2022/06/15 01:49:03;;;;;;;8.80;5.37;;;12.70;99.90;;;;;;5032008;28;20270;-63
2022/06/15 01:51:34;;;;;;;6.67;4.20;;;12.70;99.90;;;;;;5031310;28;20215;-63
2022/06/15 01:54:06;;;;;;;9.50;4.73;;;12.70;99.90;;;;;;5031753;28;20210;-63
2022/06/15 01:56:38;;;;;;;8.60;3.90;;;12.60;99.90;;;;;;5031416;28;20223;-63
2022/06/15 01:59:13;;;;;;;9.73;4.30;;;12.60;1.00;;;;;;5031565;28;20214;-63
2022/06/15 02:01:52;;;;;;;9.50;4.53;;;12.60;1.00;;;;;;5031864;28;20214;-63
2022/06/15 02:04:26;;;;;;;6.73;3.97;;;12.60;1.00;;;;;;5031460;28;20205;-64
2022/06/15 02:07:05;;;;;;;6.87;4.70;;;12.50;11.80;;;;;;5031229;28;20227;-64
2022/06/15 02:09:40;;;;;;;5.80;4.43;;;12.50;99.90;;;;;;5031688;28;20296;-63
2022/06/15 02:12:09;;;;;;;8.60;4.37;;;12.40;1.00;;;;;;5031445;28;20256;-63
2022/06/15 02:14:41;;;;;;;7.93;4.43;;;12.40;99.90;;;;;;5031462;28;20313;-64
2022/06/15 02:17:14;;;;;;;8.77;5.37;;;12.30;1.00;;;;;;5031377;28;20257;-63
2022/06/15 02:19:46;;;;;;;5.20;4.23;;;12.30;1.00;;;;;;5030695;28;20720;-63
2022/06/15 02:22:15;;;;;;;9.53;4.57;;;12.30;1.00;;;;;;5031232;28;20241;-63
2022/06/15 02:24:45;;;;;;;6.53;4.33;;;12.20;1.00;;;;;;5031755;28;20301;-63
2022/06/15 02:27:14;;;;;;;8.33;5.30;;;12.20;99.90;;;;;;5031010;28;20229;-64
2022/06/15 02:29:43;;;;;;;9.03;5.23;;;12.10;1.00;;;;;;5031520;28;20619;-63
2022/06/15 02:32:12;;;;;;;10.40;4.97;;;12.10;1.00;;;;;;5031110;28;20207;-63
2022/06/15 02:34:39;;;;;;;8.00;5.13;;;12.10;99.90;;;;;;5034238;28;20285;-63
2022/06/15 02:37:07;;;;;;;7.23;4.60;;;12.00;1.00;;;;;;5035070;28;20229;-63
2022/06/15 02:39:33;;;;;;;8.17;5.37;;;12.00;99.90;;;;;;5034689;28;20209;-64
2022/06/15 02:42:03;;;;;;;10.30;5.17;;;12.00;1.00;;;;;;5035244;28;20579;-63
2022/06/15 02:44:34;;;;;;;7.43;4.83;;;11.90;1.00;;;;;;5034816;28;20742;-64
2022/06/15 02:47:01;;;;;;;6.43;4.63;;;11.90;47.30;;;;;;5034751;28;20229;-64
2022/06/15 02:49:29;;;;;;;6.63;5.00;;;11.90;99.90;;;;;;5034908;28;20723;-63
2022/06/15 02:52:00;;;;;;;9.43;5.77;;;11.80;99.90;;;;;;5034835;28;20206;-64
2022/06/15 02:54:32;;;;;;;8.17;5.27;;;11.80;99.90;;;;;;5034705;28;20206;-64
2022/06/15 02:56:59;;;;;;;8.10;4.93;;;11.80;99.90;;;;;;5034453;28;20628;-63
2022/06/15 02:59:27;;;;;;;9.63;5.50;;;11.80;99.90;;;;;;5034888;28;20211;-63
2022/06/15 03:01:55;;;;;;;14.77;5.27;;;11.70;99.90;;;;;;5034537;28;20772;-63
2022/06/15 03:04:22;;;;;;;12.30;6.07;;;11.70;99.90;;;;;;5035040;28;20686;-63
2022/06/15 03:06:50;;;;;;;10.73;5.67;;;11.70;99.90;;;;;;5033783;28;20230;-63
2022/06/15 03:09:17;;;;;;;9.27;5.30;;;11.60;99.90;;;;;;5034170;28;20272;-63
2022/06/15 03:11:45;;;;;;;7.10;5.43;;;11.60;99.90;;;;;;5034605;28;20268;-63
2022/06/15 03:14:13;;;;;;;8.57;4.93;;;11.60;99.90;;;;;;5034543;28;20214;-63
2022/06/15 03:16:43;;;;;;;8.93;4.90;;;11.60;99.90;;;;;;5033997;28;20275;-63
2022/06/15 03:19:10;;;;;;;6.63;5.50;;;11.50;99.90;;;;;;5034446;28;20297;-63
2022/06/15 03:21:37;;;;;;;11.20;5.57;;;11.50;99.90;;;;;;5034328;28;20264;-63
2022/06/15 03:24:06;;;;;;;8.43;5.30;;;11.50;1.00;;;;;;5034201;28;20205;-63
2022/06/15 03:26:33;;;;;;;10.97;5.67;;;11.40;1.00;;;;;;5033492;28;20226;-64
2022/06/15 03:29:00;;;;;;;11.67;6.33;;;11.40;1.00;;;;;;5033310;28;20214;-63
2022/06/15 03:31:27;;;;;;;14.53;5.83;;;11.30;1.00;;;;;;5034009;28;20210;-63
2022/06/15 03:33:54;;;;;;;9.87;5.40;;;11.30;1.00;;;;;;5034240;28;20632;-64
2022/06/15 03:36:21;;;;;;;9.77;5.27;;;11.30;1.00;;;;;;5033944;28;20599;-66
2022/06/15 03:38:47;;;;;;;12.37;5.67;;;11.30;1.00;;;;;;5034056;28;20264;-64
2022/06/15 03:41:16;;;;;;;8.30;5.80;;;11.40;1.00;;;;;;5033704;28;20211;-64
2022/06/15 03:43:43;;;;;;;11.90;6.40;;;11.30;1.00;;;;;;5033877;28;20210;-63
2022/06/15 03:46:10;;;;;;;13.03;6.13;;;11.30;1.00;;;;;;5032501;28;20230;-63
2022/06/15 03:48:37;;;;;;;13.10;6.03;;;11.30;1.00;;;;;;5033877;28;20209;-63
2022/06/15 03:51:04;;;;;;;7.47;6.07;;;11.30;1.00;;;;;;5033503;28;20674;-63
2022/06/15 03:53:31;;;;;;;11.77;6.20;;;11.30;1.00;;;;;;5033991;28;20214;-63
2022/06/15 03:55:58;;;;;;;12.63;5.30;;;11.40;1.00;;;;;;5032716;28;20280;-63
2022/06/15 03:58:26;;;;;;;11.67;6.13;;;11.40;1.00;;;;;;5033630;28;20210;-63
2022/06/15 04:00:53;;;;;;;9.20;6.30;;;11.40;1.00;;;;;;5033581;28;20213;-63
2022/06/15 04:03:20;;;;;;;9.53;6.27;;;11.50;1.00;;;;;;5033491;28;20743;-63
2022/06/15 04:05:52;;;;;;;11.73;6.00;;;11.50;1.00;;;;;;5033406;28;20798;-64
2022/06/15 04:08:38;;;;;;;9.47;5.80;;;11.50;1.00;;;;;;5032905;28;20202;-64
2022/06/15 04:11:07;;;;;;;12.20;6.70;;;11.50;1.00;;;;;;5033778;28;20268;-64
2022/06/15 04:13:35;;;;;;;8.77;6.50;;;11.50;1.00;;;;;;5033350;28;20237;-64
2022/06/15 04:16:04;;;;;;;7.33;6.00;;;11.60;1.00;;;;;;5032783;28;20668;-63
2022/06/15 04:18:31;;;;;;;10.87;6.37;;;11.60;1.00;;;;;;5033523;28;20208;-64
2022/06/15 04:20:57;;;;;;;13.30;6.10;;;11.60;1.00;;;;;;5032856;28;20257;-64
2022/06/15 04:23:24;;;;;;;10.70;7.00;;;11.70;1.00;;;;;;5033622;28;20256;-64
2022/06/15 04:25:57;;;;;;;11.93;5.97;;;11.70;1.00;;;;;;5033198;28;20230;-64
2022/06/15 04:28:27;;;;;;;12.13;6.73;;;11.80;1.00;;;;;;5033533;28;20236;-64
2022/06/15 04:30:55;;;;;;;9.93;6.53;;;11.80;1.00;;;;;;5033031;28;20210;-64
2022/06/15 04:33:23;;;;;;;11.30;6.40;;;11.80;1.00;;;;;;5033173;28;20272;-64
2022/06/15 04:35:50;;;;;;;12.60;6.53;;;11.90;1.00;;;;;;5032987;28;20327;-65
2022/06/15 04:38:17;;;;;;;11.93;6.43;;;11.90;1.00;;;;;;5030866;28;20742;-63
2022/06/15 04:40:44;;;;;;;9.90;5.97;;;12.00;1.00;;;;;;5032426;28;20586;-63
2022/06/15 04:43:11;;;;;;;10.47;5.87;;;12.00;1.00;;;;;;5032178;28;20210;-63
2022/06/15 04:45:38;;;;;;;15.03;5.83;;;12.10;1.00;;;;;;5032648;28;20230;-62
2022/06/15 04:48:07;;;;;;;13.37;5.93;;;12.20;1.00;;;;;;5031867;28;20226;-62
2022/06/15 04:50:34;;;;;;;11.33;6.90;;;12.20;1.00;;;;;;5032704;28;20623;-62
2022/06/15 04:53:02;;;;;;;10.03;6.40;;;12.30;1.00;;;;;;5032902;28;20260;-62
2022/06/15 04:55:28;;;;;;;11.87;6.47;;;12.30;1.00;;;;;;5032044;28;20325;-62
2022/06/15 04:57:57;;;;;;;11.30;6.17;;;12.40;1.00;;;;;;5036673;28;20202;-62
2022/06/15 05:00:26;;;;;;;8.63;6.63;;;12.50;1.00;;;;;;5036248;28;20206;-63
2022/06/15 05:02:53;;;;;;;9.50;6.90;;;12.50;1.00;;;;;;5036298;28;20229;-64
2022/06/15 05:05:21;;;;;;;11.27;7.27;;;12.60;99.90;;;;;;5032029;28;20280;-63
2022/06/15 05:07:48;;;;;;;11.03;7.17;;;12.60;99.90;;;;;;5031443;28;20729;-63
2022/06/15 05:10:18;;;;;;;15.60;6.53;;;12.70;99.90;;;;;;5032104;28;20669;-63
2022/06/15 05:12:44;;;;;;;12.83;7.13;;;12.80;99.90;;;;;;5031922;28;20207;-63
2022/06/15 05:15:13;;;;;;;13.43;6.70;;;12.80;99.90;;;;;;5031559;28;20736;-63
2022/06/15 05:17:40;;;;;;;10.27;6.30;;;12.90;68.80;;;;;;5031541;28;20294;-63
2022/06/15 05:20:08;;;;;;;16.93;7.73;;;13.00;19.50;;;;;;5032129;28;20221;-65
2022/06/15 05:22:37;;;;;;;8.60;6.90;;;13.00;1.00;;;;;;5025081;28;20602;-65
2022/06/15 05:25:05;;;;;;;13.33;7.03;;;13.10;1.00;;;;;;5030581;28;20264;-65
2022/06/15 05:27:32;;;;;;;11.50;6.70;;;13.20;7.90;;;;;;5031131;28;20233;-65
2022/06/15 05:29:59;;;;;;;10.73;6.83;;;13.20;1.00;;;;;;5031343;28;20211;-65
2022/06/15 05:32:25;;;;;;;12.60;7.30;;;13.20;99.90;;;;;;5031305;28;20214;-65
2022/06/15 05:34:54;;;;;;;10.37;6.77;;;13.30;99.90;;;;;;5031034;28;20285;-67
2022/06/15 05:37:22;;;;;;;12.30;6.83;;;13.40;99.90;;;;;;5030977;28;20216;-65
2022/06/15 05:39:50;;;;;;;10.03;7.03;;;13.50;1.00;;;;;;5031471;28;20235;-66
2022/06/15 05:42:17;;;;;;;11.53;7.30;;;13.50;1.00;;;;;;5030825;28;20213;-65
2022/06/15 05:44:48;;;;;;;12.30;7.07;;;13.50;99.90;;;;;;5030747;28;20235;-66
2022/06/15 05:47:16;;;;;;;11.80;7.40;;;13.60;1.00;;;;;;5030379;28;20320;-65
2022/06/15 05:49:46;;;;;;;11.83;7.30;;;13.60;99.90;;;;;;5030331;28;20248;-71
2022/06/15 05:52:13;;;;;;;12.20;7.20;;;13.70;99.90;;;;;;5011709;28;20212;-66
2022/06/15 05:54:40;;;;;;;13.03;7.10;;;13.80;11.00;;;;;;5010701;28;20907;-65
2022/06/15 05:57:15;;;;;;;8.23;6.37;;;13.90;99.90;;;;;;5011004;28;20207;-66
2022/06/15 05:59:42;;;;;;;10.70;6.27;;;14.10;99.90;;;;;;5011278;28;20234;-66
2022/06/15 06:02:10;;;;;;;11.03;7.07;;;14.30;1.00;;;;;;5011489;28;20638;-66
2022/06/15 06:04:37;;;;;;;9.90;6.53;;;14.30;99.90;;;;;;5010461;28;20227;-66
2022/06/15 06:07:04;;;;;;;10.70;5.93;;;14.40;1.00;;;;;;5010485;28;20222;-66
2022/06/15 06:09:31;;;;;;;9.90;5.63;;;14.40;99.90;;;;;;5014715;28;20238;-66
2022/06/15 06:11:58;;;;;;;9.67;5.90;;;14.50;99.90;;;;;;5015088;28;20230;-67
2022/06/15 06:14:26;;;;;;;10.80;6.00;;;14.70;99.90;;;;;;5014402;28;20288;-66
2022/06/15 06:16:52;;;;;;;11.23;5.77;;;14.80;1.00;;;;;;5014957;28;20213;-66
2022/06/15 06:19:19;;;;;;;10.17;6.00;;;14.80;99.90;;;;;;5014759;28;20210;-64
2022/06/15 06:21:46;;;;;;;7.77;5.87;;;14.90;99.90;;;;;;5015154;28;20206;-64
2022/06/15 06:24:13;;;;;;;11.90;5.60;;;14.90;99.90;;;;;;5014775;28;20265;-66
2022/06/15 06:26:42;;;;;;;8.33;5.93;;;15.00;1.00;;;;;;5014649;28;20231;-63
2022/06/15 06:29:13;;;;;;;11.17;6.63;;;15.20;1.00;;;;;;5014839;28;20846;-65
2022/06/15 06:31:42;;;;;;;10.40;6.70;;;15.30;99.90;;;;;;5014558;28;20234;-64
2022/06/15 06:34:09;;;;;;;15.70;6.03;;;15.40;99.90;;;;;;5014586;28;20211;-65
2022/06/15 06:36:39;;;;;;;10.27;6.23;;;15.40;1.00;;;;;;5011739;28;20234;-64
2022/06/15 06:39:10;;;;;;;10.53;6.43;;;15.50;99.90;;;;;;5014959;28;20211;-64
2022/06/15 06:41:37;;;;;;;9.03;5.23;;;15.50;1.00;;;;;;5014613;28;20208;-65
2022/06/15 06:44:04;;;;;;;9.97;5.80;;;15.70;1.00;;;;;;5014579;28;20211;-64
2022/06/15 06:46:32;;;;;;;7.87;6.50;;;15.80;99.90;;;;;;5014306;28;20609;-64
2022/06/15 06:49:00;;;;;;;10.73;6.07;;;15.90;99.90;;;;;;5014019;28;20269;-66
2022/06/15 06:51:28;;;;;;;12.63;6.70;;;16.10;99.90;;;;;;5014701;28;20329;-65
2022/06/15 06:53:55;;;;;;;11.53;5.93;;;16.20;7.80;;;;;;5014040;28;20210;-65
2022/06/15 06:56:22;;;;;;;8.73;5.33;;;16.40;1.00;;;;;;5014313;28;20237;-66
2022/06/15 06:58:48;;;;;;;9.30;5.90;;;16.50;1.00;;;;;;5014447;28;20211;-64
2022/06/15 07:01:15;;;;;;;9.77;5.40;;;16.70;1.00;;;;;;5014021;28;20210;-65
2022/06/15 07:03:42;;;;;;;9.80;5.50;;;16.80;99.90;;;;;;5013884;28;20261;-65
2022/06/15 07:06:11;;;;;;;10.50;6.33;;;17.00;1.00;;;;;;5013622;28;20231;-65
2022/06/15 07:08:38;;;;;;;11.03;5.63;;;16.90;99.90;;;;;;5014655;28;20312;-66
2022/06/15 07:11:08;;;;;;;10.60;5.30;;;17.00;1.00;;;;;;5013776;28;20280;-66
2022/06/15 07:13:35;;;;;;;7.73;5.60;;;17.20;99.90;;;;;;5013947;28;20261;-67
2022/06/15 07:16:04;;;;;;;8.63;5.40;;;17.30;99.90;;;;;;5013423;28;20330;-65
2022/06/15 07:18:31;;;;;;;11.53;5.30;;;17.40;99.90;;;;;;5013704;28;20265;-65
2022/06/15 07:21:02;;;;;;;9.83;5.10;;;17.60;99.90;;;;;;5014300;28;20207;-65
2022/06/15 07:23:30;;;;;;;9.20;4.80;;;17.80;99.90;;;;;;5014031;28;20211;-65
2022/06/15 07:25:57;;;;;;;8.23;4.47;;;18.10;99.90;;;;;;5013573;28;20230;-64
2022/06/15 07:28:24;;;;;;;7.03;4.43;;;18.30;99.90;;;;;;5013596;28;20219;-67
2022/06/15 07:30:51;;;;;;;8.40;4.93;;;18.40;99.90;;;;;;5013411;28;20217;-65
2022/06/15 07:33:17;;;;;;;9.77;4.70;;;18.60;99.90;;;;;;5013874;28;20211;-67
2022/06/15 07:35:44;;;;;;;13.17;4.63;;;18.70;99.90;;;;;;5013280;28;20242;-65
2022/06/15 07:38:11;;;;;;;7.00;4.17;;;18.60;99.90;;;;;;5013514;28;20604;-66
2022/06/15 07:40:39;;;;;;;8.23;4.37;;;18.70;99.90;;;;;;5013337;28;20277;-67
2022/06/15 07:43:07;;;;;;;7.23;4.90;;;19.00;99.90;;;;;;5013651;28;20206;-69
2022/06/15 07:45:33;;;;;;;6.60;3.93;;;19.20;99.90;;;;;;5013346;28;20234;-67
2022/06/15 07:50:45;;;;;;;8.13;4.57;;;19.60;99.90;;;;;;5013497;28;20206;-66
2022/06/15 07:53:14;;;;;;;13.57;4.70;;;19.70;99.90;;;;;;5012923;28;20211;-63
2022/06/15 07:55:46;;;;;;;9.70;4.67;;;19.50;99.90;;;;;;5013083;28;20318;-66
2022/06/15 07:58:13;;;;;;;9.40;4.13;;;19.80;99.90;;;;;;5013207;28;20724;-68
2022/06/15 08:00:43;;;;;;;12.00;4.30;;;19.80;99.90;;;;;;5013277;28;20216;-65
2022/06/15 08:03:10;;;;;;;9.63;4.73;;;20.10;99.90;;;;;;5013383;28;20265;-64
2022/06/15 08:05:45;;;;;;;11.33;5.10;;;20.20;99.90;;;;;;5012792;28;20721;-66
2022/06/15 08:08:16;;;;;;;7.77;4.07;;;20.40;99.90;;;;;;5012662;28;20285;-65
2022/06/15 08:10:44;;;;;;;9.73;4.27;;;20.30;99.90;;;;;;5013142;28;20630;-66
2022/06/15 08:13:11;;;;;;;5.13;3.67;;;20.50;99.90;;;;;;5012888;28;20210;-65
2022/06/15 08:15:41;;;;;;;7.53;3.33;;;20.60;99.90;;;;;;5012394;28;20639;-66
2022/06/15 08:18:12;;;;;;;5.40;3.30;;;20.80;99.90;;;;;;5012850;28;20286;-66
2022/06/15 08:20:46;;;;;;;7.87;3.60;;;20.60;99.90;;;;;;5013242;28;20257;-68
2022/06/15 08:23:16;;;;;;;7.63;2.60;;;20.80;99.90;;;;;;5012938;28;20237;-69
2022/06/15 08:25:48;;;;;;;7.37;3.20;;;20.90;99.90;;;;;;5013225;28;20230;-67
2022/06/15 08:28:18;;;;;;;5.50;3.30;;;21.20;99.90;;;;;;5012816;28;20653;-68
2022/06/15 08:30:45;;;;;;;12.30;3.07;;;21.30;99.90;;;;;;5012132;28;20210;-64
2022/06/15 08:33:12;;;;;;;11.83;3.57;;;21.20;99.90;;;;;;5012687;28;20255;-69
2022/06/15 08:35:39;;;;;;;7.10;3.03;;;21.00;99.90;;;;;;5012638;28;20227;-69
2022/06/15 08:38:08;;;;;;;9.57;3.20;;;20.60;99.90;;;;;;5012447;28;20206;-66
2022/06/15 08:40:53;;;;;;;7.23;2.90;;;20.70;99.90;;;;;;5012319;28;20215;-69
2022/06/15 08:43:42;;;;;;;6.47;2.77;;;20.90;99.90;;;;;;5012492;28;20215;-68
2022/06/15 08:46:18;;;;;;;5.90;2.60;;;21.20;99.90;;;;;;5011947;28;20227;-68
2022/06/15 08:48:58;;;;;;;5.47;2.37;;;21.30;99.90;;;;;;5012579;28;20268;-69
2022/06/15 08:51:30;;;;;;;3.83;2.60;;;21.60;99.90;;;;;;5012471;28;20218;-67
2022/06/15 08:54:03;;;;;;;4.13;2.30;;;21.70;99.90;;;;;;5000126;28;20712;-69
2022/06/15 08:56:36;;;;;;;7.97;2.73;;;21.60;99.90;;;;;;5012005;28;20230;-65
2022/06/15 08:59:11;;;;;;;7.80;2.60;;;22.00;99.90;;;;;;5012382;28;20207;-66
2022/06/15 09:01:45;;;;;;;6.23;3.00;;;22.20;99.90;;;;;;5012656;28;20206;-65
2022/06/15 09:04:23;;;;;;;4.93;2.73;;;22.10;99.90;;;;;;5011724;28;20211;-67
2022/06/15 09:06:58;;;;;;;11.37;2.63;;;22.10;99.90;;;;;;5012032;28;20306;-65
2022/06/15 09:09:37;;;;;;;2.97;2.43;;;22.30;99.90;;;;;;5012360;28;20739;-66
2022/06/15 09:15:14;;;;;;;3.93;2.63;;;22.40;99.90;;;;;;5011796;28;20233;-64
2022/06/15 09:17:41;;;;;;;5.33;2.30;;;22.50;99.90;;;;;;5011687;28;20297;-65
2022/06/15 09:20:13;;;;;;;6.03;2.43;;;22.60;99.90;;;;;;5011995;28;20257;-65
2022/06/15 09:22:45;;;;;;;5.60;2.80;;;22.30;99.90;;;;;;5011566;28;20210;-65
2022/06/15 09:25:16;;;;;;;5.73;2.47;;;22.10;99.90;;;;;;5011790;28;20238;-66
2022/06/15 09:27:52;;;;;;;6.07;2.33;;;22.20;99.90;;;;;;5011384;28;20207;-64
2022/06/15 09:30:23;;;;;;;5.93;2.20;;;22.10;99.90;;;;;;5012245;28;20245;-65
2022/06/15 09:32:54;;;;;;;7.90;3.17;;;21.90;99.90;;;;;;5015467;28;20237;-65
2022/06/15 09:35:27;;;;;;;8.13;2.60;;;21.80;99.90;;;;;;5025901;28;20230;-70
2022/06/15 09:37:58;;;;;;;5.80;2.63;;;21.90;99.90;;;;;;5032109;28;20195;-68
2022/06/15 09:40:31;;;;;;;6.40;2.60;;;21.90;99.90;;;;;;5018750;28;20210;-68
2022/06/15 09:43:05;;;;;;;8.53;2.53;;;22.00;99.90;;;;;;5011744;28;20269;-68
2022/06/15 09:45:39;;;;;;;5.50;2.73;;;22.30;99.90;;;;;;5013519;28;20231;-69
2022/06/15 09:48:13;;;;;;;3.47;2.50;;;22.50;99.90;;;;;;5011493;28;20322;-67
2022/06/15 09:50:48;;;;;;;6.30;2.20;;;22.70;99.90;;;;;;5011746;28;20211;-63
2022/06/15 09:53:26;;;;;;;6.10;2.57;;;22.90;99.90;;;;;;5011198;28;20313;-64
2022/06/15 09:55:56;;;;;;;7.93;3.37;;;22.90;99.90;;;;;;5011027;28;20317;-67
2022/06/15 09:58:28;;;;;;;6.23;2.33;;;23.00;99.90;;;;;;5011200;28;20210;-67
2022/06/15 10:00:56;;;;;;;9.03;2.80;;;23.20;99.90;;;;;;5011706;28;20703;-66
2022/06/15 10:03:27;;;;;;;9.87;3.57;;;23.20;99.90;;;;;;5011108;28;20202;-62
2022/06/15 10:05:58;;;;;;;6.83;2.87;;;23.30;99.90;;;;;;5010916;28;20777;-65
2022/06/15 10:08:25;;;;;;;9.97;3.10;;;23.40;99.90;;;;;;5011369;28;20222;-67
2022/06/15 10:10:55;;;;;;;6.83;2.77;;;23.30;99.90;;;;;;5011453;28;20553;-68
2022/06/15 10:13:32;;;;;;;4.73;2.70;;;23.40;99.90;;;;;;5011906;28;20210;-68
2022/06/15 10:16:02;;;;;;;6.47;3.73;;;23.20;99.90;;;;;;5010123;28;20648;-68
2022/06/15 10:18:34;;;;;;;7.83;3.10;;;23.30;99.90;;;;;;5011939;28;20195;-64
2022/06/15 10:21:07;;;;;;;6.27;3.80;;;23.30;99.90;;;;;;5011085;28;20688;-65
2022/06/15 10:23:43;;;;;;;8.40;3.90;;;23.30;99.90;;;;;;5011156;28;20867;-64
2022/06/15 10:26:26;;;;;;;8.23;4.10;;;23.20;99.90;;;;;;5011082;28;20234;-66
2022/06/15 10:28:54;;;;;;;8.10;4.53;;;23.00;99.90;;;;;;5010725;28;20227;-65
2022/06/15 10:31:28;;;;;;;7.03;3.83;;;23.20;99.90;;;;;;5011113;28;20268;-63
2022/06/15 10:33:57;;;;;;;8.27;3.60;;;23.40;99.90;;;;;;5010478;28;20300;-62
2022/06/15 10:36:29;;;;;;;6.03;3.20;;;23.60;99.90;;;;;;5010315;28;20267;-63
2022/06/15 10:39:03;;;;;;;7.43;3.40;;;23.80;99.90;;;;;;5010784;28;20722;-64
2022/06/15 10:41:48;;;;;;;6.67;3.77;;;23.60;99.90;;;;;;5011098;28;20207;-63
2022/06/15 10:44:25;;;;;;;10.37;4.30;;;23.80;99.90;;;;;;5010669;28;20617;-63
2022/06/15 10:46:57;;;;;;;7.07;4.30;;;23.80;99.90;;;;;;5010615;28;20681;-63
2022/06/15 10:49:24;;;;;;;7.30;4.80;;;23.90;99.90;;;;;;5010865;28;20231;-63
2022/06/15 10:51:52;;;;;;;9.10;4.00;;;23.80;99.90;;;;;;5010657;28;20261;-65
2022/06/15 10:54:24;;;;;;;9.40;4.73;;;23.70;99.90;;;;;;5011929;28;20214;-68
2022/06/15 11:02:32;;;;;;;9.20;3.93;;;23.70;99.90;;;;;;5014348;28;20289;-69
2022/06/15 11:05:04;;;;;;;10.10;4.20;;;23.90;99.90;;;;;;5013882;28;20242;-64
2022/06/15 11:07:39;;;;;;;5.77;4.17;;;24.10;99.90;;;;;;5014020;28;20215;-64
2022/06/15 11:10:20;;;;;;;10.20;4.00;;;24.40;99.90;;;;;;5014158;28;20235;-66
2022/06/15 11:12:49;;;;;;;9.10;4.50;;;24.60;99.90;;;;;;5014587;28;20217;-64
2022/06/15 11:18:33;;;;;;;9.60;4.90;;;24.50;99.90;;;;;;5007478;28;20260;-64
2022/06/15 11:21:07;;;;;;;11.70;5.60;;;24.40;99.90;;;;;;5014031;28;20207;-67
2022/06/15 11:23:44;;;;;;;7.00;4.20;;;24.20;99.90;;;;;;5014401;28;20217;-68
2022/06/15 11:29:09;;;;;;;6.53;4.23;;;24.50;99.90;;;;;;5014290;28;20357;-69
2022/06/15 11:31:38;;;;;;;11.07;3.97;;;24.40;99.90;;;;;;5013894;28;20261;-68
2022/06/15 11:34:12;;;;;;;9.33;3.90;;;24.50;99.90;;;;;;5013597;28;20948;-68
2022/06/15 11:36:47;;;;;;;8.60;4.20;;;24.60;99.90;;;;;;5013798;28;20620;-68
2022/06/15 11:39:19;;;;;;;8.23;3.40;;;24.80;99.90;;;;;;5013877;28;20198;-65
2022/06/15 11:41:51;;;;;;;9.97;4.10;;;24.70;99.90;;;;;;5013860;28;20211;-64
2022/06/15 11:44:23;;;;;;;5.53;3.10;;;24.60;99.90;;;;;;5013367;28;20207;-64
2022/06/15 11:47:02;;;;;;;5.20;3.30;;;24.80;99.90;;;;;;5013040;28;20907;-64
2022/06/15 11:49:40;;;;;;;8.27;3.77;;;24.80;99.90;;;;;;5013091;28;20893;-64
2022/06/15 11:52:22;;;;;;;6.33;3.83;;;24.70;99.90;;;;;;5013718;28;20241;-63
2022/06/15 11:55:15;;;;;;;9.27;3.43;;;24.60;99.90;;;;;;5012950;28;20321;-64
2022/06/15 11:57:50;;;;;;;5.43;3.80;;;24.80;99.90;;;;;;5013179;28;20207;-62
2022/06/15 12:00:24;;;;;;;6.10;3.43;;;25.00;99.90;;;;;;5013588;28;20209;-62
2022/06/15 12:03:13;;;;;;;5.43;3.13;;;25.20;99.90;;;;;;5012693;28;20207;-62
2022/06/15 12:05:47;;;;;;;7.00;2.80;;;25.40;99.90;;;;;;5011572;28;20235;-62
2022/06/15 12:08:24;;;;;;;8.03;4.00;;;25.40;99.90;;;;;;5012735;28;20242;-62
2022/06/15 12:10:54;;;;;;;6.23;3.33;;;25.00;99.90;;;;;;5013998;28;20210;-64
2022/06/15 12:13:43;;;;;;;8.37;3.70;;;25.00;99.90;;;;;;5012726;28;20207;-64
2022/06/15 12:16:15;;;;;;;8.60;3.40;;;25.00;99.90;;;;;;5012271;28;20243;-64
2022/06/15 12:18:52;;;;;;;6.57;2.90;;;25.10;99.90;;;;;;5012669;28;20289;-63
2022/06/15 12:21:25;;;;;;;8.07;3.90;;;25.30;99.90;;;;;;5013081;28;20211;-64
2022/06/15 12:24:02;;;;;;;8.40;3.33;;;25.50;99.90;;;;;;5013023;28;20214;-64
2022/06/15 12:26:42;;;;;;;8.43;3.43;;;25.50;99.90;;;;;;5011525;28;20739;-64
2022/06/15 12:29:19;;;;;;;5.50;3.10;;;25.50;99.90;;;;;;5012660;28;20689;-64
2022/06/15 12:31:56;;;;;;;5.93;3.13;;;25.50;99.90;;;;;;5012710;28;20210;-64
2022/06/15 12:34:33;;;;;;;5.93;2.93;;;25.40;99.90;;;;;;5012357;28;20234;-63
2022/06/15 12:37:08;;;;;;;12.63;3.23;;;25.40;99.90;;;;;;5011994;28;20260;-63
2022/06/15 12:39:41;;;;;;;5.97;2.97;;;25.20;99.90;;;;;;5012697;28;20225;-63
2022/06/15 12:42:13;;;;;;;5.30;2.90;;;25.10;99.90;;;;;;5012584;28;20635;-63
2022/06/15 12:44:48;;;;;;;8.10;3.73;;;25.30;99.90;;;;;;5012065;28;20223;-63
2022/06/15 12:47:18;;;;;;;9.63;3.57;;;25.30;99.90;;;;;;5011816;28;20222;-63
2022/06/15 12:49:57;;;;;;;9.10;3.27;;;25.10;99.90;;;;;;5012014;28;20226;-63
2022/06/15 12:52:36;;;;;;;5.80;2.93;;;24.90;99.90;;;;;;5012599;28;20261;-63
2022/06/15 12:55:10;;;;;;;7.70;2.87;;;25.10;99.90;;;;;;5011858;28;20234;-63
2022/06/15 12:57:45;;;;;;;9.23;2.93;;;25.10;99.90;;;;;;5011700;28;20265;-64
2022/06/15 13:00:21;;;;;;;7.07;3.53;;;25.20;99.90;;;;;;5012342;28;20229;-63
2022/06/15 13:03:00;;;;;;;6.00;3.20;;;25.10;99.90;;;;;;5012081;28;20203;-63
2022/06/15 13:05:31;;;;;;;7.33;2.70;;;25.10;99.90;;;;;;5011906;28;20284;-63
2022/06/15 13:08:24;;;;;;;6.07;3.10;;;25.10;99.90;;;;;;5011230;28;20262;-63
2022/06/15 13:11:14;;;;;;;5.20;2.60;;;25.40;99.90;;;;;;5011474;28;20230;-69
2022/06/15 13:13:45;;;;;;;8.67;3.30;;;25.50;99.90;;;;;;5007946;28;20696;-65
2022/06/15 13:16:15;;;;;;;4.67;2.40;;;25.50;99.90;;;;;;5011226;28;20247;-65
2022/06/15 13:18:47;;;;;;;9.60;2.87;;;25.60;99.90;;;;;;5011164;28;20203;-63
2022/06/15 13:21:14;;;;;;;4.73;2.60;;;25.80;99.90;;;;;;5012063;28;20245;-63
2022/06/15 13:23:45;;;;;;;8.67;2.80;;;25.60;99.90;;;;;;5011790;28;20207;-62
2022/06/15 13:26:16;;;;;;;3.20;2.50;;;25.50;99.90;;;;;;5010929;28;20231;-63